sensor_id;sensor_type;location;lat;lon;timestamp;pressure;altitude;pressure_sealevel;temperature;humidity
26563;BME280;14217;50.986;5.826;2024-01-16T00:02:10;100355.09;;;16.40;37.78
26563;BME280;14217;50.986;5.826;2024-01-16T00:07:12;100354.66;;;16.50;37.64
26563;BME280;14217;50.986;5.826;2024-01-16T00:12:14;100357.63;;;16.42;37.80
26563;BME280;14217;50.986;5.826;2024-01-16T00:17:17;100358.31;;;16.47;37.88
26563;BME280;14217;50.986;5.826;2024-01-16T00:22:19;100362.06;;;16.41;37.94
26563;BME280;14217;50.986;5.826;2024-01-16T00:27:21;100370.00;;;16.41;37.82
26563;BME280;14217;50.986;5.826;2024-01-16T00:32:23;100363.81;;;16.42;38.04
26563;BME280;14217;50.986;5.826;2024-01-16T00:37:25;100365.34;;;16.28;37.99
26563;BME280;14217;50.986;5.826;2024-01-16T00:42:28;100367.38;;;16.41;37.89
26563;BME280;14217;50.986;5.826;2024-01-16T00:47:30;100376.09;;;16.43;37.88
26563;BME280;14217;50.986;5.826;2024-01-16T00:52:32;100378.28;;;16.54;37.66
26563;BME280;14217;50.986;5.826;2024-01-16T00:57:34;100368.75;;;16.50;37.63
26563;BME280;14217;50.986;5.826;2024-01-16T01:02:36;100378.31;;;16.53;37.35
26563;BME280;14217;50.986;5.826;2024-01-16T01:07:38;100390.09;;;16.45;37.58
26563;BME280;14217;50.986;5.826;2024-01-16T01:12:40;100391.69;;;16.50;37.46
26563;BME280;14217;50.986;5.826;2024-01-16T01:17:42;100397.03;;;16.48;37.71
26563;BME280;14217;50.986;5.826;2024-01-16T01:22:45;100402.06;;;16.54;37.59
26563;BME280;14217;50.986;5.826;2024-01-16T01:27:47;100408.22;;;16.55;37.29
26563;BME280;14217;50.986;5.826;2024-01-16T01:32:49;100411.00;;;16.52;37.32
26563;BME280;14217;50.986;5.826;2024-01-16T01:37:51;100410.34;;;16.46;37.81
26563;BME280;14217;50.986;5.826;2024-01-16T01:42:53;100413.78;;;16.49;37.36
26563;BME280;14217;50.986;5.826;2024-01-16T01:47:55;100423.44;;;16.50;37.41
26563;BME280;14217;50.986;5.826;2024-01-16T01:52:57;100427.88;;;16.49;37.57
26563;BME280;14217;50.986;5.826;2024-01-16T01:58:01;100429.66;;;16.49;37.72
26563;BME280;14217;50.986;5.826;2024-01-16T02:03:06;100435.72;;;16.51;37.69
26563;BME280;14217;50.986;5.826;2024-01-16T02:08:08;100428.72;;;16.50;37.71
26563;BME280;14217;50.986;5.826;2024-01-16T02:13:10;100431.22;;;16.53;37.37
26563;BME280;14217;50.986;5.826;2024-01-16T02:18:12;100440.22;;;16.49;37.37
26563;BME280;14217;50.986;5.826;2024-01-16T02:23:15;100434.84;;;16.50;37.63
26563;BME280;14217;50.986;5.826;2024-01-16T02:28:17;100433.16;;;16.49;37.40
26563;BME280;14217;50.986;5.826;2024-01-16T02:33:19;100429.50;;;16.52;37.62
26563;BME280;14217;50.986;5.826;2024-01-16T02:38:21;100426.00;;;16.51;37.63
26563;BME280;14217;50.986;5.826;2024-01-16T02:43:24;100425.13;;;16.51;37.75
26563;BME280;14217;50.986;5.826;2024-01-16T02:48:28;100420.00;;;16.48;37.35
26563;BME280;14217;50.986;5.826;2024-01-16T02:53:31;100414.50;;;16.52;37.56
26563;BME280;14217;50.986;5.826;2024-01-16T02:58:33;100420.00;;;16.48;37.57
26563;BME280;14217;50.986;5.826;2024-01-16T03:03:35;100416.44;;;16.49;37.42
26563;BME280;14217;50.986;5.826;2024-01-16T03:08:37;100410.22;;;16.50;37.41
26563;BME280;14217;50.986;5.826;2024-01-16T03:13:39;100397.97;;;16.47;37.72
26563;BME280;14217;50.986;5.826;2024-01-16T03:18:41;100406.75;;;16.48;37.75
26563;BME280;14217;50.986;5.826;2024-01-16T03:23:43;100409.41;;;16.48;37.64
26563;BME280;14217;50.986;5.826;2024-01-16T03:28:46;100405.72;;;16.52;37.37
26563;BME280;14217;50.986;5.826;2024-01-16T03:33:48;100396.25;;;16.46;37.60
26563;BME280;14217;50.986;5.826;2024-01-16T03:38:50;100398.84;;;16.48;37.44
26563;BME280;14217;50.986;5.826;2024-01-16T03:43:52;100399.84;;;16.45;37.42
26563;BME280;14217;50.986;5.826;2024-01-16T03:48:58;100393.53;;;16.48;37.42
26563;BME280;14217;50.986;5.826;2024-01-16T03:54:00;100396.19;;;16.48;37.68
26563;BME280;14217;50.986;5.826;2024-01-16T03:59:03;100384.81;;;16.45;37.48
26563;BME280;14217;50.986;5.826;2024-01-16T04:04:05;100390.97;;;16.46;37.73
26563;BME280;14217;50.986;5.826;2024-01-16T04:09:08;100379.53;;;16.45;37.65
26563;BME280;14217;50.986;5.826;2024-01-16T04:14:11;100379.72;;;16.41;37.61
26563;BME280;14217;50.986;5.826;2024-01-16T04:19:13;100377.09;;;16.41;37.53
26563;BME280;14217;50.986;5.826;2024-01-16T04:24:15;100378.88;;;16.40;37.59
26563;BME280;14217;50.986;5.826;2024-01-16T04:29:17;100370.00;;;16.41;37.67
26563;BME280;14217;50.986;5.826;2024-01-16T04:34:19;100373.50;;;16.42;37.64
26563;BME280;14217;50.986;5.826;2024-01-16T04:39:21;100372.72;;;16.40;37.49
26563;BME280;14217;50.986;5.826;2024-01-16T04:44:26;100369.91;;;16.44;37.59
26563;BME280;14217;50.986;5.826;2024-01-16T04:49:28;100364.66;;;16.43;37.38
26563;BME280;14217;50.986;5.826;2024-01-16T04:54:31;100378.63;;;16.46;37.25
26563;BME280;14217;50.986;5.826;2024-01-16T04:59:32;100377.81;;;16.44;37.42
26563;BME280;14217;50.986;5.826;2024-01-16T05:04:37;100371.59;;;16.45;37.44
26563;BME280;14217;50.986;5.826;2024-01-16T05:09:39;100364.78;;;16.40;37.40
26563;BME280;14217;50.986;5.826;2024-01-16T05:14:42;100359.44;;;16.41;37.67
26563;BME280;14217;50.986;5.826;2024-01-16T05:19:44;100348.00;;;16.41;37.32
26563;BME280;14217;50.986;5.826;2024-01-16T05:24:46;100353.03;;;16.47;37.23
26563;BME280;14217;50.986;5.826;2024-01-16T05:29:48;100344.50;;;16.40;37.50
26563;BME280;14217;50.986;5.826;2024-01-16T05:34:50;100347.25;;;16.37;37.42
26563;BME280;14217;50.986;5.826;2024-01-16T05:39:52;100352.50;;;16.39;37.52
26563;BME280;14217;50.986;5.826;2024-01-16T05:44:54;100346.41;;;16.37;37.25
26563;BME280;14217;50.986;5.826;2024-01-16T05:49:56;100339.41;;;16.36;37.45
26563;BME280;14217;50.986;5.826;2024-01-16T05:54:58;100339.22;;;16.40;37.44
26563;BME280;14217;50.986;5.826;2024-01-16T06:00:02;100329.63;;;16.38;37.08
26563;BME280;14217;50.986;5.826;2024-01-16T06:05:05;100330.50;;;16.38;37.38
26563;BME280;14217;50.986;5.826;2024-01-16T06:10:08;100328.91;;;16.34;37.40
26563;BME280;14217;50.986;5.826;2024-01-16T06:15:11;100334.31;;;16.31;37.18
26563;BME280;14217;50.986;5.826;2024-01-16T06:20:13;100342.19;;;16.33;37.29
26563;BME280;14217;50.986;5.826;2024-01-16T06:25:15;100342.91;;;16.36;37.20
26563;BME280;14217;50.986;5.826;2024-01-16T06:30:17;100336.94;;;16.31;37.47
26563;BME280;14217;50.986;5.826;2024-01-16T06:35:19;100345.75;;;16.32;37.21
26563;BME280;14217;50.986;5.826;2024-01-16T06:40:21;100347.41;;;16.34;37.29
26563;BME280;14217;50.986;5.826;2024-01-16T06:45:23;100352.56;;;16.37;36.94
26563;BME280;14217;50.986;5.826;2024-01-16T06:50:28;100357.56;;;16.23;37.90
26563;BME280;14217;50.986;5.826;2024-01-16T06:55:30;100360.75;;;16.11;37.74
26563;BME280;14217;50.986;5.826;2024-01-16T07:00:32;100353.88;;;16.07;37.48
26563;BME280;14217;50.986;5.826;2024-01-16T07:05:35;100351.25;;;16.07;37.51
26563;BME280;14217;50.986;5.826;2024-01-16T07:10:37;100363.34;;;15.90;38.16
26563;BME280;14217;50.986;5.826;2024-01-16T07:15:39;100381.06;;;15.88;38.31
26563;BME280;14217;50.986;5.826;2024-01-16T07:20:41;100379.88;;;15.95;37.80
26563;BME280;14217;50.986;5.826;2024-01-16T07:25:43;100370.34;;;15.91;37.45
26563;BME280;14217;50.986;5.826;2024-01-16T07:30:46;100381.91;;;15.89;37.70
26563;BME280;14217;50.986;5.826;2024-01-16T07:35:48;100377.28;;;15.94;37.45
26563;BME280;14217;50.986;5.826;2024-01-16T07:40:50;100385.41;;;16.11;37.36
26563;BME280;14217;50.986;5.826;2024-01-16T07:45:52;100385.50;;;16.08;37.89
26563;BME280;14217;50.986;5.826;2024-01-16T07:50:55;100385.13;;;16.17;37.71
26563;BME280;14217;50.986;5.826;2024-01-16T07:55:57;100381.06;;;15.88;37.99
26563;BME280;14217;50.986;5.826;2024-01-16T08:00:59;100377.75;;;15.59;38.84
26563;BME280;14217;50.986;5.826;2024-01-16T08:06:02;100387.88;;;15.72;38.53
26563;BME280;14217;50.986;5.826;2024-01-16T08:11:05;100389.88;;;15.87;38.16
26563;BME280;14217;50.986;5.826;2024-01-16T08:16:07;100396.41;;;16.00;37.81
26563;BME280;14217;50.986;5.826;2024-01-16T08:21:13;100412.88;;;16.07;37.59
26563;BME280;14217;50.986;5.826;2024-01-16T08:26:15;100412.19;;;16.02;37.86
26563;BME280;14217;50.986;5.826;2024-01-16T08:31:17;100410.41;;;16.02;37.56
26563;BME280;14217;50.986;5.826;2024-01-16T08:36:22;100397.47;;;15.96;37.78
26563;BME280;14217;50.986;5.826;2024-01-16T08:41:24;100398.41;;;15.94;37.86
26563;BME280;14217;50.986;5.826;2024-01-16T08:46:26;100400.41;;;15.89;38.30
26563;BME280;14217;50.986;5.826;2024-01-16T08:51:29;100405.19;;;15.79;38.34
26563;BME280;14217;50.986;5.826;2024-01-16T08:56:31;100407.25;;;15.71;38.20
26563;BME280;14217;50.986;5.826;2024-01-16T09:01:33;100408.75;;;15.78;38.23
26563;BME280;14217;50.986;5.826;2024-01-16T09:06:35;100411.25;;;15.81;37.64
26563;BME280;14217;50.986;5.826;2024-01-16T09:11:37;100417.09;;;16.11;37.03
26563;BME280;14217;50.986;5.826;2024-01-16T09:16:39;100411.06;;;16.08;37.30
26563;BME280;14217;50.986;5.826;2024-01-16T09:21:42;100404.56;;;16.16;37.45
26563;BME280;14217;50.986;5.826;2024-01-16T09:26:44;100403.16;;;16.08;37.24
26563;BME280;14217;50.986;5.826;2024-01-16T09:31:50;100414.13;;;16.19;37.01
26563;BME280;14217;50.986;5.826;2024-01-16T09:36:52;100400.91;;;16.19;36.58
26563;BME280;14217;50.986;5.826;2024-01-16T09:41:55;100390.50;;;16.36;36.41
26563;BME280;14217;50.986;5.826;2024-01-16T09:47:01;100388.47;;;16.43;36.22
26563;BME280;14217;50.986;5.826;2024-01-16T09:52:03;100382.22;;;16.44;36.32
26563;BME280;14217;50.986;5.826;2024-01-16T09:57:07;100378.00;;;16.40;36.50
26563;BME280;14217;50.986;5.826;2024-01-16T10:02:10;100377.69;;;16.48;36.19
26563;BME280;14217;50.986;5.826;2024-01-16T10:07:15;100370.75;;;16.45;36.17
26563;BME280;14217;50.986;5.826;2024-01-16T10:12:17;100364.50;;;16.46;36.31
26563;BME280;14217;50.986;5.826;2024-01-16T10:17:19;100359.97;;;16.50;36.25
26563;BME280;14217;50.986;5.826;2024-01-16T10:22:23;100347.06;;;16.42;36.19
26563;BME280;14217;50.986;5.826;2024-01-16T10:27:27;100336.63;;;16.39;36.56
26563;BME280;14217;50.986;5.826;2024-01-16T10:32:37;100349.66;;;16.43;36.62
26563;BME280;14217;50.986;5.826;2024-01-16T10:42:44;100344.16;;;16.48;36.54
26563;BME280;14217;50.986;5.826;2024-01-16T10:47:49;100340.06;;;16.41;36.58
26563;BME280;14217;50.986;5.826;2024-01-16T10:52:52;100346.75;;;16.50;36.46
26563;BME280;14217;50.986;5.826;2024-01-16T10:57:56;100344.25;;;16.46;36.79
26563;BME280;14217;50.986;5.826;2024-01-16T11:08:03;100339.59;;;16.52;36.73
26563;BME280;14217;50.986;5.826;2024-01-16T11:13:08;100345.88;;;16.49;36.70
26563;BME280;14217;50.986;5.826;2024-01-16T11:18:14;100337.00;;;16.50;36.79
26563;BME280;14217;50.986;5.826;2024-01-16T11:23:16;100324.84;;;16.46;36.75
26563;BME280;14217;50.986;5.826;2024-01-16T11:28:19;100325.63;;;16.48;37.08
26563;BME280;14217;50.986;5.826;2024-01-16T11:38:36;100307.75;;;16.34;37.30
26563;BME280;14217;50.986;5.826;2024-01-16T11:43:38;100304.88;;;15.77;38.14
26563;BME280;14217;50.986;5.826;2024-01-16T11:48:40;100300.66;;;15.73;38.35
26563;BME280;14217;50.986;5.826;2024-01-16T11:53:43;100312.81;;;15.77;38.03
26563;BME280;14217;50.986;5.826;2024-01-16T12:04:09;100289.31;;;15.70;38.10
26563;BME280;14217;50.986;5.826;2024-01-16T12:09:12;100293.84;;;15.66;38.46
26563;BME280;14217;50.986;5.826;2024-01-16T12:14:14;100283.34;;;15.87;37.89
26563;BME280;14217;50.986;5.826;2024-01-16T12:19:16;100275.91;;;15.96;38.02
26563;BME280;14217;50.986;5.826;2024-01-16T12:24:18;100267.78;;;16.01;38.12
26563;BME280;14217;50.986;5.826;2024-01-16T12:29:21;100263.81;;;16.11;37.70
26563;BME280;14217;50.986;5.826;2024-01-16T12:34:22;100247.38;;;16.04;37.69
26563;BME280;14217;50.986;5.826;2024-01-16T12:39:25;100239.94;;;16.13;37.72
26563;BME280;14217;50.986;5.826;2024-01-16T12:44:30;100231.91;;;16.16;37.86
26563;BME280;14217;50.986;5.826;2024-01-16T12:49:32;100228.13;;;16.21;37.78
26563;BME280;14217;50.986;5.826;2024-01-16T12:54:35;100228.47;;;16.14;38.03
26563;BME280;14217;50.986;5.826;2024-01-16T12:59:37;100235.19;;;16.21;37.99
26563;BME280;14217;50.986;5.826;2024-01-16T13:04:40;100232.94;;;16.32;37.67
26563;BME280;14217;50.986;5.826;2024-01-16T13:09:42;100222.34;;;15.93;38.47
26563;BME280;14217;50.986;5.826;2024-01-16T13:14:44;100219.56;;;15.75;39.05
26563;BME280;14217;50.986;5.826;2024-01-16T13:19:47;100227.94;;;15.85;38.76
26563;BME280;14217;50.986;5.826;2024-01-16T13:24:49;100220.44;;;15.96;38.51
26563;BME280;14217;50.986;5.826;2024-01-16T13:30:06;100216.78;;;15.99;38.87
26563;BME280;14217;50.986;5.826;2024-01-16T13:35:08;100205.50;;;15.95;38.69
26563;BME280;14217;50.986;5.826;2024-01-16T13:40:11;100209.19;;;15.91;39.03
26563;BME280;14217;50.986;5.826;2024-01-16T13:45:17;100196.06;;;15.90;39.05
26563;BME280;14217;50.986;5.826;2024-01-16T13:50:20;100197.19;;;15.84;38.89
26563;BME280;14217;50.986;5.826;2024-01-16T13:55:22;100197.44;;;15.78;39.34
26563;BME280;14217;50.986;5.826;2024-01-16T14:00:24;100189.38;;;15.81;39.20
26563;BME280;14217;50.986;5.826;2024-01-16T14:05:26;100180.59;;;16.01;38.86
26563;BME280;14217;50.986;5.826;2024-01-16T14:10:29;100173.56;;;16.00;38.83
26563;BME280;14217;50.986;5.826;2024-01-16T14:15:31;100168.91;;;16.07;38.95
26563;BME280;14217;50.986;5.826;2024-01-16T14:20:33;100164.59;;;16.04;38.79
26563;BME280;14217;50.986;5.826;2024-01-16T14:25:34;100155.97;;;16.00;39.62
26563;BME280;14217;50.986;5.826;2024-01-16T14:30:37;100155.38;;;16.13;40.60
26563;BME280;14217;50.986;5.826;2024-01-16T14:35:44;100147.34;;;16.16;41.73
26563;BME280;14217;50.986;5.826;2024-01-16T14:40:46;100149.81;;;16.19;42.48
26563;BME280;14217;50.986;5.826;2024-01-16T14:45:48;100151.88;;;16.12;43.29
26563;BME280;14217;50.986;5.826;2024-01-16T14:50:50;100130.97;;;16.08;43.62
26563;BME280;14217;50.986;5.826;2024-01-16T14:55:53;100115.91;;;16.10;43.98
26563;BME280;14217;50.986;5.826;2024-01-16T15:00:56;100109.25;;;16.20;44.01
26563;BME280;14217;50.986;5.826;2024-01-16T15:05:58;100109.47;;;16.15;43.77
26563;BME280;14217;50.986;5.826;2024-01-16T15:11:00;100110.97;;;16.21;43.72
26563;BME280;14217;50.986;5.826;2024-01-16T15:16:03;100112.91;;;16.17;43.80
26563;BME280;14217;50.986;5.826;2024-01-16T15:21:05;100124.97;;;16.23;42.56
26563;BME280;14217;50.986;5.826;2024-01-16T15:26:07;100127.59;;;16.23;42.89
26563;BME280;14217;50.986;5.826;2024-01-16T15:31:09;100121.25;;;16.27;42.30
26563;BME280;14217;50.986;5.826;2024-01-16T15:36:11;100120.69;;;16.20;42.13
26563;BME280;14217;50.986;5.826;2024-01-16T15:41:13;100131.31;;;16.19;41.66
26563;BME280;14217;50.986;5.826;2024-01-16T15:46:16;100130.47;;;16.18;41.44
26563;BME280;14217;50.986;5.826;2024-01-16T15:51:18;100134.97;;;16.16;41.20
26563;BME280;14217;50.986;5.826;2024-01-16T15:56:20;100135.13;;;16.13;41.52
26563;BME280;14217;50.986;5.826;2024-01-16T16:01:22;100137.81;;;16.12;40.98
26563;BME280;14217;50.986;5.826;2024-01-16T16:06:24;100154.53;;;16.12;41.13
26563;BME280;14217;50.986;5.826;2024-01-16T16:11:26;100151.03;;;16.12;41.12
26563;BME280;14217;50.986;5.826;2024-01-16T16:16:30;100157.75;;;16.19;40.75
26563;BME280;14217;50.986;5.826;2024-01-16T16:21:32;100159.47;;;16.20;40.65
26563;BME280;14217;50.986;5.826;2024-01-16T16:26:37;100158.47;;;16.22;40.53
26563;BME280;14217;50.986;5.826;2024-01-16T16:31:40;100148.75;;;16.23;40.25
26563;BME280;14217;50.986;5.826;2024-01-16T16:36:42;100140.47;;;16.31;40.13
26563;BME280;14217;50.986;5.826;2024-01-16T16:41:45;100152.41;;;16.20;40.49
26563;BME280;14217;50.986;5.826;2024-01-16T16:46:48;100145.47;;;16.18;40.49
26563;BME280;14217;50.986;5.826;2024-01-16T16:51:50;100137.53;;;16.18;40.37
26563;BME280;14217;50.986;5.826;2024-01-16T16:56:52;100135.53;;;16.23;40.38
26563;BME280;14217;50.986;5.826;2024-01-16T17:01:56;100122.69;;;16.34;44.12
26563;BME280;14217;50.986;5.826;2024-01-16T17:06:58;100118.53;;;16.29;44.58
26563;BME280;14217;50.986;5.826;2024-01-16T17:12:01;100116.63;;;16.32;44.23
26563;BME280;14217;50.986;5.826;2024-01-16T17:17:03;100106.97;;;16.31;44.05
26563;BME280;14217;50.986;5.826;2024-01-16T17:22:05;100107.81;;;16.32;43.86
26563;BME280;14217;50.986;5.826;2024-01-16T17:27:07;100099.81;;;16.33;43.67
26563;BME280;14217;50.986;5.826;2024-01-16T17:32:10;100106.97;;;16.31;43.72
26563;BME280;14217;50.986;5.826;2024-01-16T17:37:12;100095.81;;;16.24;43.65
26563;BME280;14217;50.986;5.826;2024-01-16T17:42:14;100085.19;;;16.26;43.00
26563;BME280;14217;50.986;5.826;2024-01-16T17:47:16;100073.03;;;16.22;43.06
26563;BME280;14217;50.986;5.826;2024-01-16T17:52:20;100072.88;;;16.25;42.67
26563;BME280;14217;50.986;5.826;2024-01-16T17:57:23;100064.97;;;16.25;40.88
26563;BME280;14217;50.986;5.826;2024-01-16T18:02:25;100062.25;;;16.26;40.44
26563;BME280;14217;50.986;5.826;2024-01-16T18:07:28;100058.69;;;16.28;40.79
26563;BME280;14217;50.986;5.826;2024-01-16T18:12:30;100057.69;;;16.30;39.94
26563;BME280;14217;50.986;5.826;2024-01-16T18:17:34;100047.69;;;16.18;40.36
26563;BME280;14217;50.986;5.826;2024-01-16T18:22:39;100051.84;;;16.23;41.91
26563;BME280;14217;50.986;5.826;2024-01-16T18:27:42;100032.25;;;16.28;41.02
26563;BME280;14217;50.986;5.826;2024-01-16T18:32:45;100033.25;;;16.25;41.22
26563;BME280;14217;50.986;5.826;2024-01-16T18:37:48;100029.69;;;16.26;41.31
26563;BME280;14217;50.986;5.826;2024-01-16T18:42:54;100023.59;;;16.24;41.48
26563;BME280;14217;50.986;5.826;2024-01-16T18:47:56;100024.53;;;16.23;41.15
26563;BME280;14217;50.986;5.826;2024-01-16T18:53:00;100018.81;;;16.32;40.86
26563;BME280;14217;50.986;5.826;2024-01-16T18:58:02;100024.53;;;16.23;40.72
26563;BME280;14217;50.986;5.826;2024-01-16T19:03:06;100014.75;;;16.25;40.99
26563;BME280;14217;50.986;5.826;2024-01-16T19:08:09;100009.31;;;16.28;40.65
26563;BME280;14217;50.986;5.826;2024-01-16T19:13:12;100007.47;;;16.30;40.69
26563;BME280;14217;50.986;5.826;2024-01-16T19:18:16;99996.72;;;16.33;40.59
26563;BME280;14217;50.986;5.826;2024-01-16T19:23:21;99989.25;;;16.24;40.77
26563;BME280;14217;50.986;5.826;2024-01-16T19:28:25;99995.03;;;16.32;40.38
26563;BME280;14217;50.986;5.826;2024-01-16T19:33:28;99994.75;;;16.19;40.73
26563;BME280;14217;50.986;5.826;2024-01-16T19:38:31;99978.75;;;16.22;40.45
26563;BME280;14217;50.986;5.826;2024-01-16T19:43:33;99964.34;;;16.11;40.74
26563;BME280;14217;50.986;5.826;2024-01-16T19:48:36;99972.88;;;15.98;41.03
26563;BME280;14217;50.986;5.826;2024-01-16T19:53:41;99966.13;;;16.10;40.71
26563;BME280;14217;50.986;5.826;2024-01-16T19:58:43;99953.09;;;16.24;40.39
26563;BME280;14217;50.986;5.826;2024-01-16T20:03:49;99958.25;;;16.28;40.33
26563;BME280;14217;50.986;5.826;2024-01-16T20:08:51;99960.25;;;16.22;40.62
26563;BME280;14217;50.986;5.826;2024-01-16T20:14:00;99953.81;;;16.28;40.29
26563;BME280;14217;50.986;5.826;2024-01-16T20:19:02;99940.66;;;16.26;40.41
26563;BME280;14217;50.986;5.826;2024-01-16T20:24:04;99946.97;;;16.24;40.60
26563;BME280;14217;50.986;5.826;2024-01-16T20:29:09;99947.75;;;16.26;40.50
26563;BME280;14217;50.986;5.826;2024-01-16T20:34:12;99946.00;;;16.25;40.59
26563;BME280;14217;50.986;5.826;2024-01-16T20:39:14;99938.34;;;16.38;40.16
26563;BME280;14217;50.986;5.826;2024-01-16T20:44:17;99921.78;;;16.34;40.25
26563;BME280;14217;50.986;5.826;2024-01-16T20:49:22;99921.78;;;16.34;40.56
26563;BME280;14217;50.986;5.826;2024-01-16T20:54:24;99914.09;;;16.30;40.27
26563;BME280;14217;50.986;5.826;2024-01-16T20:59:26;99909.78;;;16.27;40.56
26563;BME280;14217;50.986;5.826;2024-01-16T21:04:28;99885.88;;;16.30;40.53
26563;BME280;14217;50.986;5.826;2024-01-16T21:09:30;99876.22;;;16.29;40.41
26563;BME280;14217;50.986;5.826;2024-01-16T21:14:32;99848.84;;;16.30;40.53
26563;BME280;14217;50.986;5.826;2024-01-16T21:19:35;99839.13;;;16.31;40.61
26563;BME280;14217;50.986;5.826;2024-01-16T21:24:37;99830.34;;;16.30;40.37
26563;BME280;14217;50.986;5.826;2024-01-16T21:29:40;99816.50;;;16.25;41.96
26563;BME280;14217;50.986;5.826;2024-01-16T21:34:46;99799.47;;;16.31;41.03
26563;BME280;14217;50.986;5.826;2024-01-16T21:39:49;99788.06;;;16.30;41.13
26563;BME280;14217;50.986;5.826;2024-01-16T21:44:51;99785.19;;;16.35;45.87
26563;BME280;14217;50.986;5.826;2024-01-16T21:49:55;99785.34;;;15.97;45.55
26563;BME280;14217;50.986;5.826;2024-01-16T21:55:00;99772.75;;;16.37;43.71
26563;BME280;14217;50.986;5.826;2024-01-16T22:00:03;99775.06;;;16.43;43.08
26563;BME280;14217;50.986;5.826;2024-01-16T22:05:07;99774.28;;;16.41;42.94
26563;BME280;14217;50.986;5.826;2024-01-16T22:10:09;99775.97;;;16.42;42.35
26563;BME280;14217;50.986;5.826;2024-01-16T22:15:11;99766.09;;;16.45;42.05
26563;BME280;14217;50.986;5.826;2024-01-16T22:20:14;99782.91;;;16.44;41.85
26563;BME280;14217;50.986;5.826;2024-01-16T22:25:17;99779.41;;;16.44;41.89
26563;BME280;14217;50.986;5.826;2024-01-16T22:30:19;99769.69;;;16.44;41.56
26563;BME280;14217;50.986;5.826;2024-01-16T22:35:23;99756.31;;;16.48;41.25
26563;BME280;14217;50.986;5.826;2024-01-16T22:40:25;99755.38;;;16.49;41.05
26563;BME280;14217;50.986;5.826;2024-01-16T22:45:28;99742.31;;;16.45;41.01
26563;BME280;14217;50.986;5.826;2024-01-16T22:50:30;99733.47;;;16.46;41.06
26563;BME280;14217;50.986;5.826;2024-01-16T22:55:32;99736.09;;;16.46;40.91
26563;BME280;14217;50.986;5.826;2024-01-16T23:00:35;99731.59;;;16.49;40.64
26563;BME280;14217;50.986;5.826;2024-01-16T23:05:53;99736.25;;;16.43;40.98
26563;BME280;14217;50.986;5.826;2024-01-16T23:10:55;99719.69;;;16.40;40.79
26563;BME280;14217;50.986;5.826;2024-01-16T23:15:58;99707.94;;;16.45;40.55
26563;BME280;14217;50.986;5.826;2024-01-16T23:21:00;99686.66;;;16.49;40.64
26563;BME280;14217;50.986;5.826;2024-01-16T23:26:02;99666.41;;;16.48;40.49
26563;BME280;14217;50.986;5.826;2024-01-16T23:31:05;99658.16;;;16.54;40.25
26563;BME280;14217;50.986;5.826;2024-01-16T23:36:08;99646.63;;;16.55;40.13
26563;BME280;14217;50.986;5.826;2024-01-16T23:41:11;99646.72;;;16.53;40.26
26563;BME280;14217;50.986;5.826;2024-01-16T23:46:13;99642.34;;;16.52;40.31
26563;BME280;14217;50.986;5.826;2024-01-16T23:51:15;99629.97;;;16.53;40.14
26563;BME280;14217;50.986;5.826;2024-01-16T23:56:18;99620.19;;;16.55;40.21
